sensor_id;sensor_type;location;lat;lon;timestamp;temperature;humidity
10386;DHT22;34307;51.332;12.334;2023-07-29T00:00:14;19.20;99.90
10386;DHT22;34307;51.332;12.334;2023-07-29T00:02:44;19.20;99.90
10386;DHT22;34307;51.332;12.334;2023-07-29T00:05:20;19.20;99.90
10386;DHT22;34307;51.332;12.334;2023-07-29T00:07:54;19.10;99.90
10386;DHT22;34307;51.332;12.334;2023-07-29T00:10:23;19.10;99.90
10386;DHT22;34307;51.332;12.334;2023-07-29T00:12:52;19.10;99.90
10386;DHT22;34307;51.332;12.334;2023-07-29T00:15:20;19.10;99.90
10386;DHT22;34307;51.332;12.334;2023-07-29T00:17:50;19.00;99.90
10386;DHT22;34307;51.332;12.334;2023-07-29T00:20:18;19.00;99.90
10386;DHT22;34307;51.332;12.334;2023-07-29T00:22:48;18.90;99.90
10386;DHT22;34307;51.332;12.334;2023-07-29T00:25:20;18.90;99.90
10386;DHT22;34307;51.332;12.334;2023-07-29T00:27:48;19.00;99.90
10386;DHT22;34307;51.332;12.334;2023-07-29T00:30:16;18.80;99.90
10386;DHT22;34307;51.332;12.334;2023-07-29T00:32:47;18.90;99.90
10386;DHT22;34307;51.332;12.334;2023-07-29T00:35:17;18.90;99.90
10386;DHT22;34307;51.332;12.334;2023-07-29T00:37:45;18.90;99.90
10386;DHT22;34307;51.332;12.334;2023-07-29T00:40:15;18.90;99.90
10386;DHT22;34307;51.332;12.334;2023-07-29T00:42:47;18.90;99.90
10386;DHT22;34307;51.332;12.334;2023-07-29T00:45:19;18.90;99.90
10386;DHT22;34307;51.332;12.334;2023-07-29T00:47:50;18.90;99.90
10386;DHT22;34307;51.332;12.334;2023-07-29T00:50:21;18.90;99.90
10386;DHT22;34307;51.332;12.334;2023-07-29T00:52:50;19.00;99.90
10386;DHT22;34307;51.332;12.334;2023-07-29T00:55:19;19.00;99.90
10386;DHT22;34307;51.332;12.334;2023-07-29T00:57:48;18.90;99.90
10386;DHT22;34307;51.332;12.334;2023-07-29T01:00:19;18.90;99.90
10386;DHT22;34307;51.332;12.334;2023-07-29T01:02:47;18.90;99.90
10386;DHT22;34307;51.332;12.334;2023-07-29T01:05:16;18.90;99.90
10386;DHT22;34307;51.332;12.334;2023-07-29T01:07:52;18.90;99.90
10386;DHT22;34307;51.332;12.334;2023-07-29T01:10:30;18.90;99.90
10386;DHT22;34307;51.332;12.334;2023-07-29T01:13:06;18.90;99.90
10386;DHT22;34307;51.332;12.334;2023-07-29T01:15:40;18.90;99.90
10386;DHT22;34307;51.332;12.334;2023-07-29T01:18:17;18.90;99.90
10386;DHT22;34307;51.332;12.334;2023-07-29T01:20:47;18.90;99.90
10386;DHT22;34307;51.332;12.334;2023-07-29T01:23:28;18.80;99.90
10386;DHT22;34307;51.332;12.334;2023-07-29T01:25:56;18.90;99.90
10386;DHT22;34307;51.332;12.334;2023-07-29T01:28:25;18.80;99.90
10386;DHT22;34307;51.332;12.334;2023-07-29T01:30:58;18.80;99.90
10386;DHT22;34307;51.332;12.334;2023-07-29T01:33:34;18.80;99.90
10386;DHT22;34307;51.332;12.334;2023-07-29T01:36:07;18.90;99.90
10386;DHT22;34307;51.332;12.334;2023-07-29T01:38:41;18.90;99.90
10386;DHT22;34307;51.332;12.334;2023-07-29T01:41:13;19.00;99.90
10386;DHT22;34307;51.332;12.334;2023-07-29T01:43:41;19.00;99.90
10386;DHT22;34307;51.332;12.334;2023-07-29T01:46:11;19.10;99.90
10386;DHT22;34307;51.332;12.334;2023-07-29T01:48:41;19.10;99.90
10386;DHT22;34307;51.332;12.334;2023-07-29T01:51:11;19.10;99.90
10386;DHT22;34307;51.332;12.334;2023-07-29T01:53:41;19.10;99.90
10386;DHT22;34307;51.332;12.334;2023-07-29T01:56:09;19.10;99.90
10386;DHT22;34307;51.332;12.334;2023-07-29T01:58:37;19.10;99.90
10386;DHT22;34307;51.332;12.334;2023-07-29T02:01:05;19.10;99.90
10386;DHT22;34307;51.332;12.334;2023-07-29T02:03:34;19.10;99.90
10386;DHT22;34307;51.332;12.334;2023-07-29T02:06:02;19.00;99.90
10386;DHT22;34307;51.332;12.334;2023-07-29T02:08:30;19.00;99.90
10386;DHT22;34307;51.332;12.334;2023-07-29T02:11:00;19.00;99.90
10386;DHT22;34307;51.332;12.334;2023-07-29T02:13:28;19.00;99.90
10386;DHT22;34307;51.332;12.334;2023-07-29T02:15:56;19.00;99.90
10386;DHT22;34307;51.332;12.334;2023-07-29T02:18:28;19.00;99.90
10386;DHT22;34307;51.332;12.334;2023-07-29T02:20:56;19.00;99.90
10386;DHT22;34307;51.332;12.334;2023-07-29T02:23:24;19.00;99.90
10386;DHT22;34307;51.332;12.334;2023-07-29T02:25:53;19.00;99.90
10386;DHT22;34307;51.332;12.334;2023-07-29T02:28:22;19.00;99.90
10386;DHT22;34307;51.332;12.334;2023-07-29T02:31:09;19.00;99.90
10386;DHT22;34307;51.332;12.334;2023-07-29T02:33:40;19.00;99.90
10386;DHT22;34307;51.332;12.334;2023-07-29T02:36:12;18.90;99.90
10386;DHT22;34307;51.332;12.334;2023-07-29T02:38:41;18.80;99.90
10386;DHT22;34307;51.332;12.334;2023-07-29T02:41:11;18.80;99.90
10386;DHT22;34307;51.332;12.334;2023-07-29T02:43:41;18.80;99.90
10386;DHT22;34307;51.332;12.334;2023-07-29T02:46:13;18.70;99.90
10386;DHT22;34307;51.332;12.334;2023-07-29T02:48:42;18.70;99.90
10386;DHT22;34307;51.332;12.334;2023-07-29T02:51:11;18.70;99.90
10386;DHT22;34307;51.332;12.334;2023-07-29T02:53:40;18.60;99.90
10386;DHT22;34307;51.332;12.334;2023-07-29T02:56:08;18.60;99.90
10386;DHT22;34307;51.332;12.334;2023-07-29T02:58:41;18.60;99.90
10386;DHT22;34307;51.332;12.334;2023-07-29T03:01:08;18.60;99.90
10386;DHT22;34307;51.332;12.334;2023-07-29T03:03:36;18.50;99.90
10386;DHT22;34307;51.332;12.334;2023-07-29T03:06:12;18.50;99.90
10386;DHT22;34307;51.332;12.334;2023-07-29T03:08:40;18.50;99.90
10386;DHT22;34307;51.332;12.334;2023-07-29T03:11:10;18.50;99.90
10386;DHT22;34307;51.332;12.334;2023-07-29T03:13:38;18.50;99.90
10386;DHT22;34307;51.332;12.334;2023-07-29T03:16:10;18.50;99.90
10386;DHT22;34307;51.332;12.334;2023-07-29T03:18:39;18.50;99.90
10386;DHT22;34307;51.332;12.334;2023-07-29T03:21:09;18.50;99.90
10386;DHT22;34307;51.332;12.334;2023-07-29T03:23:38;18.40;99.90
10386;DHT22;34307;51.332;12.334;2023-07-29T03:26:08;18.40;99.90
10386;DHT22;34307;51.332;12.334;2023-07-29T03:28:39;18.30;99.90
10386;DHT22;34307;51.332;12.334;2023-07-29T03:31:10;18.30;99.90
10386;DHT22;34307;51.332;12.334;2023-07-29T03:33:39;18.30;99.90
10386;DHT22;34307;51.332;12.334;2023-07-29T03:36:07;18.20;99.90
10386;DHT22;34307;51.332;12.334;2023-07-29T03:38:35;18.20;99.90
10386;DHT22;34307;51.332;12.334;2023-07-29T03:41:08;18.20;99.90
10386;DHT22;34307;51.332;12.334;2023-07-29T03:43:37;18.20;99.90
10386;DHT22;34307;51.332;12.334;2023-07-29T03:46:04;18.20;99.90
10386;DHT22;34307;51.332;12.334;2023-07-29T03:48:39;18.20;99.90
10386;DHT22;34307;51.332;12.334;2023-07-29T03:51:07;18.20;99.90
10386;DHT22;34307;51.332;12.334;2023-07-29T03:53:35;18.20;99.90
10386;DHT22;34307;51.332;12.334;2023-07-29T03:56:03;18.20;99.90
10386;DHT22;34307;51.332;12.334;2023-07-29T03:58:32;18.10;99.90
10386;DHT22;34307;51.332;12.334;2023-07-29T04:01:01;18.10;99.90
10386;DHT22;34307;51.332;12.334;2023-07-29T04:03:32;18.10;99.90
10386;DHT22;34307;51.332;12.334;2023-07-29T04:06:02;18.00;99.90
10386;DHT22;34307;51.332;12.334;2023-07-29T04:08:30;18.00;99.90
10386;DHT22;34307;51.332;12.334;2023-07-29T04:11:00;18.00;99.90
10386;DHT22;34307;51.332;12.334;2023-07-29T04:13:28;18.10;99.90
10386;DHT22;34307;51.332;12.334;2023-07-29T04:15:56;18.20;99.90
10386;DHT22;34307;51.332;12.334;2023-07-29T04:18:25;18.20;99.90
10386;DHT22;34307;51.332;12.334;2023-07-29T04:20:56;18.20;99.90
10386;DHT22;34307;51.332;12.334;2023-07-29T04:23:25;18.20;99.90
10386;DHT22;34307;51.332;12.334;2023-07-29T04:25:54;18.20;99.90
10386;DHT22;34307;51.332;12.334;2023-07-29T04:28:22;18.20;99.90
10386;DHT22;34307;51.332;12.334;2023-07-29T04:30:52;18.20;99.90
10386;DHT22;34307;51.332;12.334;2023-07-29T04:33:23;18.20;99.90
10386;DHT22;34307;51.332;12.334;2023-07-29T04:35:51;18.30;99.90
10386;DHT22;34307;51.332;12.334;2023-07-29T04:38:20;18.30;99.90
10386;DHT22;34307;51.332;12.334;2023-07-29T04:40:52;18.30;99.90
10386;DHT22;34307;51.332;12.334;2023-07-29T04:43:21;18.30;99.90
10386;DHT22;34307;51.332;12.334;2023-07-29T04:45:50;18.40;99.90
10386;DHT22;34307;51.332;12.334;2023-07-29T04:48:19;18.40;99.90
10386;DHT22;34307;51.332;12.334;2023-07-29T04:50:47;18.50;99.90
10386;DHT22;34307;51.332;12.334;2023-07-29T04:53:15;18.60;99.90
10386;DHT22;34307;51.332;12.334;2023-07-29T04:55:44;18.70;99.90
10386;DHT22;34307;51.332;12.334;2023-07-29T04:58:13;18.80;99.90
10386;DHT22;34307;51.332;12.334;2023-07-29T05:00:41;18.90;99.90
10386;DHT22;34307;51.332;12.334;2023-07-29T05:03:10;19.00;99.90
10386;DHT22;34307;51.332;12.334;2023-07-29T05:05:38;19.00;99.90
10386;DHT22;34307;51.332;12.334;2023-07-29T05:08:08;19.10;99.90
10386;DHT22;34307;51.332;12.334;2023-07-29T05:10:39;19.20;99.90
10386;DHT22;34307;51.332;12.334;2023-07-29T05:13:14;19.30;99.90
10386;DHT22;34307;51.332;12.334;2023-07-29T05:15:42;19.40;99.90
10386;DHT22;34307;51.332;12.334;2023-07-29T05:18:11;19.40;99.90
10386;DHT22;34307;51.332;12.334;2023-07-29T05:20:39;19.50;99.90
10386;DHT22;34307;51.332;12.334;2023-07-29T05:23:07;19.60;99.90
10386;DHT22;34307;51.332;12.334;2023-07-29T05:25:35;19.60;99.90
10386;DHT22;34307;51.332;12.334;2023-07-29T05:28:04;19.60;99.90
10386;DHT22;34307;51.332;12.334;2023-07-29T05:30:34;19.70;99.90
10386;DHT22;34307;51.332;12.334;2023-07-29T05:33:04;19.70;99.90
10386;DHT22;34307;51.332;12.334;2023-07-29T05:35:34;19.70;99.90
10386;DHT22;34307;51.332;12.334;2023-07-29T05:38:03;19.80;99.90
10386;DHT22;34307;51.332;12.334;2023-07-29T05:40:33;19.70;99.90
10386;DHT22;34307;51.332;12.334;2023-07-29T05:43:01;19.80;99.90
10386;DHT22;34307;51.332;12.334;2023-07-29T05:45:30;19.80;99.90
10386;DHT22;34307;51.332;12.334;2023-07-29T05:47:59;19.80;99.90
10386;DHT22;34307;51.332;12.334;2023-07-29T05:50:30;19.90;99.90
10386;DHT22;34307;51.332;12.334;2023-07-29T05:52:58;19.90;99.90
10386;DHT22;34307;51.332;12.334;2023-07-29T05:55:26;20.00;99.90
10386;DHT22;34307;51.332;12.334;2023-07-29T05:57:54;20.10;99.90
10386;DHT22;34307;51.332;12.334;2023-07-29T06:00:22;20.20;99.90
10386;DHT22;34307;51.332;12.334;2023-07-29T06:02:51;20.20;99.90
10386;DHT22;34307;51.332;12.334;2023-07-29T06:05:20;20.40;99.90
10386;DHT22;34307;51.332;12.334;2023-07-29T06:07:48;20.50;99.90
10386;DHT22;34307;51.332;12.334;2023-07-29T06:10:16;20.60;99.90
10386;DHT22;34307;51.332;12.334;2023-07-29T06:12:45;20.80;99.90
10386;DHT22;34307;51.332;12.334;2023-07-29T06:15:14;20.80;99.90
10386;DHT22;34307;51.332;12.334;2023-07-29T06:17:42;20.80;99.90
10386;DHT22;34307;51.332;12.334;2023-07-29T06:20:10;20.90;99.90
10386;DHT22;34307;51.332;12.334;2023-07-29T06:22:41;21.00;99.90
10386;DHT22;34307;51.332;12.334;2023-07-29T06:25:11;21.10;99.90
10386;DHT22;34307;51.332;12.334;2023-07-29T06:27:44;21.10;99.90
10386;DHT22;34307;51.332;12.334;2023-07-29T06:30:12;21.10;99.90
10386;DHT22;34307;51.332;12.334;2023-07-29T06:32:40;21.10;99.90
10386;DHT22;34307;51.332;12.334;2023-07-29T06:35:08;21.10;99.90
10386;DHT22;34307;51.332;12.334;2023-07-29T06:37:36;21.20;99.90
10386;DHT22;34307;51.332;12.334;2023-07-29T06:40:07;21.30;99.90
10386;DHT22;34307;51.332;12.334;2023-07-29T06:42:35;21.40;99.90
10386;DHT22;34307;51.332;12.334;2023-07-29T06:45:05;21.50;99.90
10386;DHT22;34307;51.332;12.334;2023-07-29T06:47:33;21.50;99.90
10386;DHT22;34307;51.332;12.334;2023-07-29T06:50:02;21.60;99.90
10386;DHT22;34307;51.332;12.334;2023-07-29T06:52:30;21.60;99.90
10386;DHT22;34307;51.332;12.334;2023-07-29T06:54:59;21.60;99.90
10386;DHT22;34307;51.332;12.334;2023-07-29T06:57:29;21.60;99.90
10386;DHT22;34307;51.332;12.334;2023-07-29T06:59:57;21.60;99.90
10386;DHT22;34307;51.332;12.334;2023-07-29T07:02:25;21.90;99.90
10386;DHT22;34307;51.332;12.334;2023-07-29T07:04:54;22.30;99.90
10386;DHT22;34307;51.332;12.334;2023-07-29T07:07:22;22.40;99.90
10386;DHT22;34307;51.332;12.334;2023-07-29T07:09:50;22.50;99.90
10386;DHT22;34307;51.332;12.334;2023-07-29T07:12:19;22.90;99.90
10386;DHT22;34307;51.332;12.334;2023-07-29T07:14:50;22.90;99.90
10386;DHT22;34307;51.332;12.334;2023-07-29T07:17:18;23.10;99.90
10386;DHT22;34307;51.332;12.334;2023-07-29T07:19:46;23.40;99.90
10386;DHT22;34307;51.332;12.334;2023-07-29T07:22:15;23.10;99.90
10386;DHT22;34307;51.332;12.334;2023-07-29T07:24:44;23.30;99.90
10386;DHT22;34307;51.332;12.334;2023-07-29T07:27:12;23.20;99.90
10386;DHT22;34307;51.332;12.334;2023-07-29T07:29:41;23.10;99.90
10386;DHT22;34307;51.332;12.334;2023-07-29T07:32:15;23.00;99.90
10386;DHT22;34307;51.332;12.334;2023-07-29T07:34:46;22.90;99.90
10386;DHT22;34307;51.332;12.334;2023-07-29T07:37:14;22.90;99.90
10386;DHT22;34307;51.332;12.334;2023-07-29T07:39:42;23.20;99.90
10386;DHT22;34307;51.332;12.334;2023-07-29T07:42:11;23.30;99.90
10386;DHT22;34307;51.332;12.334;2023-07-29T07:44:39;23.30;99.90
10386;DHT22;34307;51.332;12.334;2023-07-29T07:47:09;23.30;99.90
10386;DHT22;34307;51.332;12.334;2023-07-29T07:49:38;23.30;99.90
10386;DHT22;34307;51.332;12.334;2023-07-29T07:52:07;23.30;99.90
10386;DHT22;34307;51.332;12.334;2023-07-29T07:54:35;23.20;99.90
10386;DHT22;34307;51.332;12.334;2023-07-29T07:57:04;23.30;99.90
10386;DHT22;34307;51.332;12.334;2023-07-29T07:59:32;23.20;99.90
10386;DHT22;34307;51.332;12.334;2023-07-29T08:02:01;23.20;99.90
10386;DHT22;34307;51.332;12.334;2023-07-29T08:04:30;23.30;99.90
10386;DHT22;34307;51.332;12.334;2023-07-29T08:06:59;23.20;99.90
10386;DHT22;34307;51.332;12.334;2023-07-29T08:09:27;23.10;99.90
10386;DHT22;34307;51.332;12.334;2023-07-29T08:11:55;23.20;99.90
10386;DHT22;34307;51.332;12.334;2023-07-29T08:14:23;23.30;99.90
10386;DHT22;34307;51.332;12.334;2023-07-29T08:16:51;23.40;99.90
10386;DHT22;34307;51.332;12.334;2023-07-29T08:19:20;23.50;99.90
10386;DHT22;34307;51.332;12.334;2023-07-29T08:21:49;23.60;99.90
10386;DHT22;34307;51.332;12.334;2023-07-29T08:24:18;23.60;99.90
10386;DHT22;34307;51.332;12.334;2023-07-29T08:26:46;23.50;99.90
10386;DHT22;34307;51.332;12.334;2023-07-29T08:29:15;23.50;99.90
10386;DHT22;34307;51.332;12.334;2023-07-29T08:31:43;23.40;99.90
10386;DHT22;34307;51.332;12.334;2023-07-29T08:34:11;23.50;99.90
10386;DHT22;34307;51.332;12.334;2023-07-29T08:36:43;23.70;99.90
10386;DHT22;34307;51.332;12.334;2023-07-29T08:39:11;24.00;99.90
10386;DHT22;34307;51.332;12.334;2023-07-29T08:41:48;24.20;98.70
10386;DHT22;34307;51.332;12.334;2023-07-29T08:44:20;24.60;97.70
10386;DHT22;34307;51.332;12.334;2023-07-29T08:46:48;24.60;94.70
10386;DHT22;34307;51.332;12.334;2023-07-29T08:49:18;24.80;94.20
10386;DHT22;34307;51.332;12.334;2023-07-29T08:51:47;24.50;93.70
10386;DHT22;34307;51.332;12.334;2023-07-29T08:54:15;24.40;94.80
10386;DHT22;34307;51.332;12.334;2023-07-29T08:56:48;24.70;95.30
10386;DHT22;34307;51.332;12.334;2023-07-29T08:59:16;24.70;93.80
10386;DHT22;34307;51.332;12.334;2023-07-29T09:01:48;24.80;92.80
10386;DHT22;34307;51.332;12.334;2023-07-29T09:04:17;25.10;90.00
10386;DHT22;34307;51.332;12.334;2023-07-29T09:06:47;25.20;90.10
10386;DHT22;34307;51.332;12.334;2023-07-29T09:09:18;25.80;84.80
10386;DHT22;34307;51.332;12.334;2023-07-29T09:11:48;25.90;75.20
10386;DHT22;34307;51.332;12.334;2023-07-29T09:14:16;25.60;75.10
10386;DHT22;34307;51.332;12.334;2023-07-29T09:16:44;25.60;78.90
10386;DHT22;34307;51.332;12.334;2023-07-29T09:19:12;25.80;74.80
10386;DHT22;34307;51.332;12.334;2023-07-29T09:21:41;25.50;73.00
10386;DHT22;34307;51.332;12.334;2023-07-29T09:24:10;25.10;72.30
10386;DHT22;34307;51.332;12.334;2023-07-29T09:26:40;25.00;73.20
10386;DHT22;34307;51.332;12.334;2023-07-29T09:29:22;25.10;77.50
10386;DHT22;34307;51.332;12.334;2023-07-29T09:31:50;25.30;74.00
10386;DHT22;34307;51.332;12.334;2023-07-29T09:34:18;25.20;76.10
10386;DHT22;34307;51.332;12.334;2023-07-29T09:36:50;25.20;76.80
10386;DHT22;34307;51.332;12.334;2023-07-29T09:39:18;25.20;77.50
10386;DHT22;34307;51.332;12.334;2023-07-29T09:41:47;25.10;78.40
10386;DHT22;34307;51.332;12.334;2023-07-29T09:44:15;24.70;81.90
10386;DHT22;34307;51.332;12.334;2023-07-29T09:46:46;24.50;87.90
10386;DHT22;34307;51.332;12.334;2023-07-29T09:49:16;24.40;91.00
10386;DHT22;34307;51.332;12.334;2023-07-29T09:51:45;24.40;91.40
10386;DHT22;34307;51.332;12.334;2023-07-29T09:54:13;24.40;91.50
10386;DHT22;34307;51.332;12.334;2023-07-29T09:56:42;24.50;90.70
10386;DHT22;34307;51.332;12.334;2023-07-29T09:59:11;24.30;92.20
10386;DHT22;34307;51.332;12.334;2023-07-29T10:01:42;24.50;90.50
10386;DHT22;34307;51.332;12.334;2023-07-29T10:04:15;24.60;91.30
10386;DHT22;34307;51.332;12.334;2023-07-29T10:06:43;24.70;86.90
10386;DHT22;34307;51.332;12.334;2023-07-29T10:09:13;24.70;87.00
10386;DHT22;34307;51.332;12.334;2023-07-29T10:11:47;24.90;87.50
10386;DHT22;34307;51.332;12.334;2023-07-29T10:14:17;25.00;87.70
10386;DHT22;34307;51.332;12.334;2023-07-29T10:16:46;25.20;83.40
10386;DHT22;34307;51.332;12.334;2023-07-29T10:19:15;25.20;85.70
10386;DHT22;34307;51.332;12.334;2023-07-29T10:21:48;25.00;84.60
10386;DHT22;34307;51.332;12.334;2023-07-29T10:24:19;25.10;87.30
10386;DHT22;34307;51.332;12.334;2023-07-29T10:26:58;24.90;90.70
10386;DHT22;34307;51.332;12.334;2023-07-29T10:29:30;24.70;92.50
10386;DHT22;34307;51.332;12.334;2023-07-29T10:32:01;24.70;92.80
10386;DHT22;34307;51.332;12.334;2023-07-29T10:34:31;24.60;93.40
10386;DHT22;34307;51.332;12.334;2023-07-29T10:37:03;24.60;95.40
10386;DHT22;34307;51.332;12.334;2023-07-29T10:39:38;24.70;93.70
10386;DHT22;34307;51.332;12.334;2023-07-29T10:42:07;24.70;93.70
10386;DHT22;34307;51.332;12.334;2023-07-29T10:44:49;24.70;94.60
10386;DHT22;34307;51.332;12.334;2023-07-29T10:47:21;24.80;99.20
10386;DHT22;34307;51.332;12.334;2023-07-29T10:49:52;24.30;99.90
10386;DHT22;34307;51.332;12.334;2023-07-29T10:52:37;23.90;99.90
10386;DHT22;34307;51.332;12.334;2023-07-29T10:55:23;24.10;99.90
10386;DHT22;34307;51.332;12.334;2023-07-29T10:57:52;24.40;99.90
10386;DHT22;34307;51.332;12.334;2023-07-29T11:00:20;24.80;93.30
10386;DHT22;34307;51.332;12.334;2023-07-29T11:02:59;25.20;91.00
10386;DHT22;34307;51.332;12.334;2023-07-29T11:05:43;25.20;84.70
10386;DHT22;34307;51.332;12.334;2023-07-29T11:08:22;25.40;81.90
10386;DHT22;34307;51.332;12.334;2023-07-29T11:11:05;25.70;77.30
10386;DHT22;34307;51.332;12.334;2023-07-29T11:13:34;25.50;73.50
10386;DHT22;34307;51.332;12.334;2023-07-29T11:16:04;25.80;73.50
10386;DHT22;34307;51.332;12.334;2023-07-29T11:18:34;26.00;67.90
10386;DHT22;34307;51.332;12.334;2023-07-29T11:21:09;26.00;63.70
10386;DHT22;34307;51.332;12.334;2023-07-29T11:23:37;25.80;63.70
10386;DHT22;34307;51.332;12.334;2023-07-29T11:26:07;25.80;62.50
10386;DHT22;34307;51.332;12.334;2023-07-29T11:28:39;25.40;63.70
10386;DHT22;34307;51.332;12.334;2023-07-29T11:31:07;25.10;65.00
10386;DHT22;34307;51.332;12.334;2023-07-29T11:33:38;25.30;65.50
10386;DHT22;34307;51.332;12.334;2023-07-29T11:36:17;25.30;64.80
10386;DHT22;34307;51.332;12.334;2023-07-29T11:38:47;25.50;64.30
10386;DHT22;34307;51.332;12.334;2023-07-29T11:41:20;25.50;63.70
10386;DHT22;34307;51.332;12.334;2023-07-29T11:43:49;25.50;63.00
10386;DHT22;34307;51.332;12.334;2023-07-29T11:46:21;25.50;61.90
10386;DHT22;34307;51.332;12.334;2023-07-29T11:48:50;25.50;62.30
10386;DHT22;34307;51.332;12.334;2023-07-29T11:51:19;25.60;62.40
10386;DHT22;34307;51.332;12.334;2023-07-29T11:53:49;25.70;60.70
10386;DHT22;34307;51.332;12.334;2023-07-29T11:56:17;25.80;59.70
10386;DHT22;34307;51.332;12.334;2023-07-29T11:58:45;26.00;59.20
10386;DHT22;34307;51.332;12.334;2023-07-29T12:01:13;25.90;58.60
10386;DHT22;34307;51.332;12.334;2023-07-29T12:03:42;25.80;58.90
10386;DHT22;34307;51.332;12.334;2023-07-29T12:06:11;25.60;59.30
10386;DHT22;34307;51.332;12.334;2023-07-29T12:08:43;25.50;60.00
10386;DHT22;34307;51.332;12.334;2023-07-29T12:11:13;25.60;60.00
10386;DHT22;34307;51.332;12.334;2023-07-29T12:13:42;25.50;60.50
10386;DHT22;34307;51.332;12.334;2023-07-29T12:16:16;25.50;60.50
10386;DHT22;34307;51.332;12.334;2023-07-29T12:18:45;25.60;61.20
10386;DHT22;34307;51.332;12.334;2023-07-29T12:21:17;25.40;61.10
10386;DHT22;34307;51.332;12.334;2023-07-29T12:23:50;25.60;61.30
10386;DHT22;34307;51.332;12.334;2023-07-29T12:26:20;25.50;61.50
10386;DHT22;34307;51.332;12.334;2023-07-29T12:28:48;25.60;59.80
10386;DHT22;34307;51.332;12.334;2023-07-29T12:31:17;25.70;59.30
10386;DHT22;34307;51.332;12.334;2023-07-29T12:33:45;25.70;59.20
10386;DHT22;34307;51.332;12.334;2023-07-29T12:36:13;25.80;57.70
10386;DHT22;34307;51.332;12.334;2023-07-29T12:38:43;26.00;56.30
10386;DHT22;34307;51.332;12.334;2023-07-29T12:41:12;26.20;56.10
10386;DHT22;34307;51.332;12.334;2023-07-29T12:43:41;26.20;54.90
10386;DHT22;34307;51.332;12.334;2023-07-29T12:46:09;26.20;54.90
10386;DHT22;34307;51.332;12.334;2023-07-29T12:48:41;26.30;53.90
10386;DHT22;34307;51.332;12.334;2023-07-29T12:51:12;26.50;53.70
10386;DHT22;34307;51.332;12.334;2023-07-29T12:53:41;27.00;51.50
10386;DHT22;34307;51.332;12.334;2023-07-29T12:56:09;26.70;51.60
10386;DHT22;34307;51.332;12.334;2023-07-29T12:58:39;27.20;51.20
10386;DHT22;34307;51.332;12.334;2023-07-29T13:01:07;27.20;49.10
10386;DHT22;34307;51.332;12.334;2023-07-29T13:03:35;26.60;48.50
10386;DHT22;34307;51.332;12.334;2023-07-29T13:06:05;26.40;49.80
10386;DHT22;34307;51.332;12.334;2023-07-29T13:08:33;26.30;50.90
10386;DHT22;34307;51.332;12.334;2023-07-29T13:11:03;26.80;49.70
10386;DHT22;34307;51.332;12.334;2023-07-29T13:13:32;27.30;49.00
10386;DHT22;34307;51.332;12.334;2023-07-29T13:16:02;27.30;49.40
10386;DHT22;34307;51.332;12.334;2023-07-29T13:18:30;28.30;45.50
10386;DHT22;34307;51.332;12.334;2023-07-29T13:20:59;27.70;44.30
10386;DHT22;34307;51.332;12.334;2023-07-29T13:23:28;27.50;46.50
10386;DHT22;34307;51.332;12.334;2023-07-29T13:25:57;27.30;44.60
10386;DHT22;34307;51.332;12.334;2023-07-29T13:28:25;27.20;45.20
10386;DHT22;34307;51.332;12.334;2023-07-29T13:30:55;26.90;45.50
10386;DHT22;34307;51.332;12.334;2023-07-29T13:33:24;28.10;44.40
10386;DHT22;34307;51.332;12.334;2023-07-29T13:35:53;28.60;42.70
10386;DHT22;34307;51.332;12.334;2023-07-29T13:38:21;28.50;40.90
10386;DHT22;34307;51.332;12.334;2023-07-29T13:40:49;28.10;39.10
10386;DHT22;34307;51.332;12.334;2023-07-29T13:43:19;27.70;39.90
10386;DHT22;34307;51.332;12.334;2023-07-29T13:45:47;27.30;40.30
10386;DHT22;34307;51.332;12.334;2023-07-29T13:48:17;28.00;41.00
10386;DHT22;34307;51.332;12.334;2023-07-29T13:50:47;28.50;38.20
10386;DHT22;34307;51.332;12.334;2023-07-29T13:53:15;29.10;35.70
10386;DHT22;34307;51.332;12.334;2023-07-29T13:55:43;29.10;33.80
10386;DHT22;34307;51.332;12.334;2023-07-29T13:58:11;29.10;32.40
10386;DHT22;34307;51.332;12.334;2023-07-29T14:00:39;29.40;32.50
10386;DHT22;34307;51.332;12.334;2023-07-29T14:03:07;29.00;30.00
10386;DHT22;34307;51.332;12.334;2023-07-29T14:05:35;28.20;31.80
10386;DHT22;34307;51.332;12.334;2023-07-29T14:08:05;27.60;33.50
10386;DHT22;34307;51.332;12.334;2023-07-29T14:10:33;27.50;33.60
10386;DHT22;34307;51.332;12.334;2023-07-29T14:13:01;28.10;33.00
10386;DHT22;34307;51.332;12.334;2023-07-29T14:15:30;28.20;31.80
10386;DHT22;34307;51.332;12.334;2023-07-29T14:17:59;28.70;32.20
10386;DHT22;34307;51.332;12.334;2023-07-29T14:20:29;28.80;29.80
10386;DHT22;34307;51.332;12.334;2023-07-29T14:22:58;27.80;32.50
10386;DHT22;34307;51.332;12.334;2023-07-29T14:25:29;27.40;34.90
10386;DHT22;34307;51.332;12.334;2023-07-29T14:27:57;26.80;36.20
10386;DHT22;34307;51.332;12.334;2023-07-29T14:30:25;26.60;41.40
10386;DHT22;34307;51.332;12.334;2023-07-29T14:32:55;24.90;59.50
10386;DHT22;34307;51.332;12.334;2023-07-29T14:35:23;24.40;68.10
10386;DHT22;34307;51.332;12.334;2023-07-29T14:37:50;24.00;85.00
10386;DHT22;34307;51.332;12.334;2023-07-29T14:40:19;23.30;97.30
10386;DHT22;34307;51.332;12.334;2023-07-29T14:42:48;22.90;99.90
10386;DHT22;34307;51.332;12.334;2023-07-29T14:45:16;22.70;99.90
10386;DHT22;34307;51.332;12.334;2023-07-29T14:47:44;22.70;99.90
10386;DHT22;34307;51.332;12.334;2023-07-29T14:50:15;22.70;99.90
10386;DHT22;34307;51.332;12.334;2023-07-29T14:52:43;22.50;99.90
10386;DHT22;34307;51.332;12.334;2023-07-29T14:55:12;22.50;99.90
10386;DHT22;34307;51.332;12.334;2023-07-29T14:57:40;22.30;99.90
10386;DHT22;34307;51.332;12.334;2023-07-29T15:00:11;22.00;99.90
10386;DHT22;34307;51.332;12.334;2023-07-29T15:02:40;21.80;99.90
10386;DHT22;34307;51.332;12.334;2023-07-29T15:05:08;21.60;99.90
10386;DHT22;34307;51.332;12.334;2023-07-29T15:07:38;21.40;99.90
10386;DHT22;34307;51.332;12.334;2023-07-29T15:10:07;21.00;99.90
10386;DHT22;34307;51.332;12.334;2023-07-29T15:12:36;20.80;99.90
10386;DHT22;34307;51.332;12.334;2023-07-29T15:15:06;20.60;99.90
10386;DHT22;34307;51.332;12.334;2023-07-29T15:17:37;20.30;99.90
10386;DHT22;34307;51.332;12.334;2023-07-29T15:20:09;20.00;99.90
10386;DHT22;34307;51.332;12.334;2023-07-29T15:22:39;19.40;99.90
10386;DHT22;34307;51.332;12.334;2023-07-29T15:25:08;19.00;99.90
10386;DHT22;34307;51.332;12.334;2023-07-29T15:27:38;18.80;99.90
10386;DHT22;34307;51.332;12.334;2023-07-29T15:30:07;18.60;99.90